This is the latest recevied weather packets stored in our database for station/object IZ1RFL-3. If no packets are shown the sender has not sent any weather packets the latest 10 day(s).
| Time | Temp. | Humidity | Pressure | Rain* | Wind** | Luminosity | Snow |
|---|---|---|---|---|---|---|---|
| 1777876265 | 13.33° C | 66% | 1018 hPa | - | - | - | - |
| 1777875365 | 13.89° C | 65% | 1017.8 hPa | - | - | - | - |
| 1777874465 | 13.89° C | 62% | 1017.8 hPa | - | - | - | - |
| 1777873565 | 13.33° C | 65% | 1017.8 hPa | - | - | - | - |
| 1777872665 | 13.33° C | 61% | 1017.6 hPa | - | - | - | - |
| 1777871765 | 13.33° C | 62% | 1017.5 hPa | - | - | - | - |
| 1777870865 | 13.89° C | 58% | 1017.5 hPa | - | - | - | - |
| 1777869965 | 13.89° C | 59% | 1017.4 hPa | - | - | - | - |
| 1777869065 | 13.33° C | 59% | 1017.3 hPa | - | - | - | - |
| 1777868165 | 13.33° C | 58% | 1017.2 hPa | - | - | - | - |
| 1777867265 | 13.33° C | 62% | 1017.1 hPa | - | - | - | - |
| 1777866365 | 13.89° C | 58% | 1017 hPa | - | - | - | - |
| 1777865465 | 13.89° C | 57% | 1017.1 hPa | - | - | - | - |
| 1777864565 | 14.44° C | 54% | 1017.1 hPa | - | - | - | - |
| 1777863665 | 13.89° C | 55% | 1017.2 hPa | - | - | - | - |
| 1777862765 | 13.89° C | 52% | 1017.3 hPa | - | - | - | - |
| 1777861865 | 14.44° C | 52% | 1017.1 hPa | - | - | - | - |
| 1777860965 | 13.89° C | 54% | 1017.3 hPa | - | - | - | - |
| 1777860065 | 14.44° C | 53% | 1017.3 hPa | - | - | - | - |
| 1777859165 | 14.44° C | 54% | 1017.2 hPa | - | - | - | - |
| 1777858265 | 14.44° C | 49% | 1017 hPa | - | - | - | - |
| 1777857365 | 14.44° C | 50% | 1017.5 hPa | - | - | - | - |
| 1777856465 | 14.44° C | 55% | 1017.5 hPa | - | - | - | - |
| 1777855565 | 15.56° C | 47% | 1017.4 hPa | - | - | - | - |
| 1777854665 | 15° C | 50% | 1017.6 hPa | - | - | - | - |
* Rain since midnight (hover to see other rain measurements)
** Current wind speed in m/s (hover to see current wind gust speed)